createdAt,value
2018-12-08T00:00:12.638Z,0.90
2018-12-08T00:02:40.211Z,0.90
2018-12-08T00:05:07.803Z,1.05
2018-12-08T00:07:35.364Z,0.80
2018-12-08T00:10:03.474Z,0.70
2018-12-08T00:12:31.036Z,1.00
2018-12-08T00:14:58.622Z,0.90
2018-12-08T00:17:26.395Z,1.22
2018-12-08T00:19:54.574Z,1.17
2018-12-08T00:22:22.127Z,1.35
2018-12-08T00:24:49.710Z,1.25
2018-12-08T00:27:17.282Z,1.45
2018-12-08T00:29:44.884Z,1.27
2018-12-08T00:32:12.445Z,1.27
2018-12-08T00:34:40.034Z,1.25
2018-12-08T00:37:07.596Z,1.20
2018-12-08T00:39:35.182Z,1.10
2018-12-08T00:42:02.739Z,1.17
2018-12-08T00:44:30.327Z,1.30
2018-12-08T00:46:57.996Z,1.00
2018-12-08T00:49:25.580Z,1.00
2018-12-08T00:51:53.139Z,1.20
2018-12-08T00:54:20.737Z,1.40
2018-12-08T00:56:49.071Z,1.32
2018-12-08T00:59:16.651Z,1.37
2018-12-08T01:01:44.216Z,1.40
2018-12-08T01:04:11.799Z,1.20
2018-12-08T01:06:39.372Z,1.60
2018-12-08T01:09:08.321Z,1.70
2018-12-08T01:11:35.915Z,1.20
2018-12-08T01:14:03.489Z,1.30
2018-12-08T01:16:31.079Z,1.60
2018-12-08T01:18:58.635Z,1.20
2018-12-08T01:21:26.379Z,1.60
2018-12-08T01:23:53.942Z,1.33
2018-12-08T01:26:21.648Z,1.60
2018-12-08T01:28:49.215Z,1.30
2018-12-08T01:31:16.808Z,1.35
2018-12-08T01:33:44.363Z,1.77
2018-12-08T01:36:11.963Z,1.10
2018-12-08T01:38:39.524Z,1.30
2018-12-08T01:41:07.115Z,1.12
2018-12-08T01:43:34.675Z,1.50
2018-12-08T01:46:02.260Z,1.40
2018-12-08T01:48:29.823Z,1.35
2018-12-08T01:50:57.410Z,1.25
2018-12-08T01:53:24.967Z,1.17
2018-12-08T01:55:52.552Z,1.20
2018-12-08T01:58:20.131Z,1.30
2018-12-08T02:00:47.851Z,1.13
2018-12-08T02:03:15.441Z,1.40
2018-12-08T02:05:43.007Z,1.17
2018-12-08T02:08:10.599Z,0.90
2018-12-08T02:10:38.156Z,1.12
2018-12-08T02:13:05.743Z,1.02
2018-12-08T02:15:33.426Z,1.10
2018-12-08T02:18:01.015Z,1.02
2018-12-08T02:20:28.570Z,0.93
2018-12-08T02:22:56.207Z,0.80
2018-12-08T02:25:23.888Z,0.90
2018-12-08T02:27:51.477Z,0.80
2018-12-08T02:30:19.055Z,1.05
2018-12-08T02:32:46.651Z,0.95
2018-12-08T02:35:14.213Z,0.95
2018-12-08T02:37:41.816Z,1.00
2018-12-08T02:40:09.426Z,1.00
2018-12-08T02:42:37.002Z,0.90
2018-12-08T02:45:04.827Z,1.12
2018-12-08T02:47:32.386Z,1.20
2018-12-08T02:49:59.973Z,1.10
2018-12-08T02:52:27.559Z,1.00
2018-12-08T02:54:55.155Z,0.80
2018-12-08T02:57:22.947Z,1.00
2018-12-08T02:59:50.526Z,1.20
2018-12-08T03:02:18.086Z,0.85
2018-12-08T03:04:45.671Z,1.15
2018-12-08T03:07:13.255Z,1.20
2018-12-08T03:09:40.854Z,1.17
2018-12-08T03:12:08.415Z,0.90
2018-12-08T03:14:36.011Z,1.10
2018-12-08T03:17:03.691Z,0.90
2018-12-08T03:19:31.287Z,0.98
2018-12-08T03:21:58.851Z,0.70
2018-12-08T03:24:26.430Z,0.82
2018-12-08T03:26:53.987Z,0.90
2018-12-08T03:29:21.574Z,0.80
2018-12-08T03:31:49.150Z,0.80
2018-12-08T03:34:16.739Z,0.95
2018-12-08T03:36:44.318Z,0.80
2018-12-08T03:39:11.889Z,0.80
2018-12-08T03:41:39.483Z,0.70
2018-12-08T03:44:07.051Z,0.68
2018-12-08T03:46:34.646Z,0.60
2018-12-08T03:49:02.274Z,0.70
2018-12-08T03:51:29.864Z,0.68
2018-12-08T03:53:57.428Z,0.70
2018-12-08T03:56:25.014Z,0.85
2018-12-08T03:58:52.572Z,0.70
2018-12-08T04:01:20.179Z,0.80
2018-12-08T04:03:47.731Z,0.90
2018-12-08T04:06:15.350Z,0.70
2018-12-08T04:08:43.045Z,1.10
2018-12-08T04:11:10.755Z,1.22
2018-12-08T04:13:38.535Z,0.85
2018-12-08T04:16:06.137Z,0.88
2018-12-08T04:18:33.959Z,0.82
2018-12-08T04:21:01.533Z,0.90
2018-12-08T04:23:29.117Z,0.88
2018-12-08T04:25:56.677Z,1.00
2018-12-08T04:28:24.287Z,1.00
2018-12-08T04:30:51.869Z,1.20
2018-12-08T04:33:19.459Z,0.80
2018-12-08T04:35:47.016Z,0.82
2018-12-08T04:38:14.606Z,0.93
2018-12-08T04:40:42.183Z,1.27
2018-12-08T04:43:09.796Z,1.20
2018-12-08T04:45:37.354Z,1.07
2018-12-08T04:48:05.022Z,1.10
2018-12-08T04:50:32.603Z,0.80
2018-12-08T04:53:00.165Z,1.00
2018-12-08T04:55:27.758Z,1.20
2018-12-08T04:57:55.316Z,0.93
2018-12-08T05:00:22.903Z,1.20
2018-12-08T05:02:50.479Z,1.20
2018-12-08T05:05:18.075Z,1.10
2018-12-08T05:07:45.630Z,1.10
2018-12-08T05:10:13.219Z,1.55
2018-12-08T05:12:40.779Z,1.20
2018-12-08T05:15:08.371Z,1.30
2018-12-08T05:17:35.926Z,1.00
2018-12-08T05:20:04.550Z,1.00
2018-12-08T05:22:32.114Z,1.17
2018-12-08T05:24:59.707Z,1.10
2018-12-08T05:27:27.275Z,1.10
2018-12-08T05:29:54.859Z,1.05
2018-12-08T05:32:22.447Z,0.90
2018-12-08T05:34:50.007Z,1.50
2018-12-08T05:37:17.599Z,1.10
2018-12-08T05:39:45.158Z,1.20
2018-12-08T05:42:12.744Z,1.27
2018-12-08T05:44:40.307Z,1.10
2018-12-08T05:47:07.967Z,1.30
2018-12-08T05:49:35.531Z,1.27
2018-12-08T05:52:03.123Z,1.20
2018-12-08T05:54:30.684Z,1.57
2018-12-08T05:56:58.279Z,1.15
2018-12-08T05:59:25.854Z,1.10
2018-12-08T06:01:53.447Z,1.00
2018-12-08T06:04:21.008Z,1.37
2018-12-08T06:06:48.591Z,1.20
2018-12-08T06:09:16.163Z,1.22
2018-12-08T06:11:43.772Z,1.20
2018-12-08T06:14:11.327Z,1.45
2018-12-08T06:16:38.919Z,1.20
2018-12-08T06:19:06.498Z,1.02
2018-12-08T06:21:36.745Z,1.25
2018-12-08T06:24:04.655Z,1.10
2018-12-08T06:26:35.565Z,1.40
2018-12-08T06:29:03.164Z,1.40
2018-12-08T06:31:30.733Z,1.50
2018-12-08T06:33:58.318Z,1.20
2018-12-08T06:36:25.878Z,1.10
2018-12-08T06:38:53.469Z,1.00
2018-12-08T06:41:21.031Z,1.30
2018-12-08T06:43:48.618Z,1.00
2018-12-08T06:46:16.194Z,1.37
2018-12-08T06:48:43.789Z,1.30
2018-12-08T06:51:11.467Z,1.30
2018-12-08T06:53:39.064Z,1.30
2018-12-08T06:56:07.721Z,1.30
2018-12-08T06:58:35.397Z,1.30
2018-12-08T07:01:02.974Z,1.30
2018-12-08T07:03:30.554Z,1.85
2018-12-08T07:05:58.135Z,1.77
2018-12-08T07:08:25.813Z,2.22
2018-12-08T07:10:53.399Z,3.37
2018-12-08T07:13:20.987Z,2.85
2018-12-08T07:15:48.794Z,2.03
2018-12-08T07:18:16.366Z,1.67
2018-12-08T07:20:43.951Z,1.60
2018-12-08T07:23:11.511Z,1.75
2018-12-08T07:25:39.235Z,1.50
2018-12-08T07:28:07.100Z,1.37
2018-12-08T07:30:35.068Z,1.25
2018-12-08T07:33:02.839Z,1.25
2018-12-08T07:35:30.698Z,1.37
2018-12-08T07:37:58.284Z,1.27
2018-12-08T07:40:26.333Z,1.20
2018-12-08T07:42:54.298Z,1.50
2018-12-08T07:45:22.690Z,1.40
2018-12-08T07:47:50.848Z,1.40
2018-12-08T07:50:20.050Z,1.30
2018-12-08T07:52:47.863Z,1.30
2018-12-08T07:55:15.658Z,1.30
2018-12-08T07:57:43.339Z,1.60
2018-12-08T08:00:12.733Z,1.27
2018-12-08T08:02:40.812Z,1.30
2018-12-08T08:05:08.924Z,1.25
2018-12-08T08:07:37.006Z,1.60
2018-12-08T08:10:07.248Z,1.90
2018-12-08T08:12:37.906Z,1.10
2018-12-08T08:15:06.797Z,1.80
2018-12-08T08:17:34.701Z,1.35
2018-12-08T08:20:02.529Z,1.47
2018-12-08T08:22:30.292Z,1.50
2018-12-08T08:25:05.369Z,1.45
2018-12-08T08:27:34.086Z,1.15
2018-12-08T08:30:02.396Z,1.30
2018-12-08T08:32:30.171Z,1.22
2018-12-08T08:34:57.948Z,1.30
2018-12-08T08:37:25.789Z,1.00
2018-12-08T08:39:53.648Z,1.20
2018-12-08T08:42:21.253Z,1.20
2018-12-08T08:44:49.083Z,1.40
2018-12-08T08:47:16.978Z,1.22
2018-12-08T08:49:44.574Z,1.12
2018-12-08T08:52:13.390Z,1.10
2018-12-08T08:54:41.345Z,1.42
2018-12-08T08:57:08.966Z,1.42
2018-12-08T08:59:38.114Z,1.40
2018-12-08T09:02:06.175Z,1.60
2018-12-08T09:04:34.050Z,1.40
2018-12-08T09:07:01.916Z,1.30
2018-12-08T09:09:29.887Z,1.35
2018-12-08T09:11:57.739Z,1.20
2018-12-08T09:14:26.340Z,1.40
2018-12-08T09:16:54.085Z,1.40
2018-12-08T09:19:22.107Z,1.77
2018-12-08T09:21:49.715Z,1.50
2018-12-08T09:24:17.393Z,1.60
2018-12-08T09:26:45.256Z,1.55
2018-12-08T09:29:12.884Z,1.40
2018-12-08T09:31:40.921Z,1.80
2018-12-08T09:34:08.599Z,1.62
2018-12-08T09:36:36.192Z,1.70
2018-12-08T09:39:05.890Z,1.50
2018-12-08T09:41:33.480Z,1.20
2018-12-08T09:44:01.043Z,1.42
2018-12-08T09:46:28.626Z,1.55
2018-12-08T09:48:56.198Z,1.30
2018-12-08T09:51:23.787Z,1.22
2018-12-08T09:53:51.361Z,1.20
2018-12-08T09:56:19.032Z,1.45
2018-12-08T09:58:46.592Z,1.40
2018-12-08T10:01:14.183Z,2.25
2018-12-08T10:03:41.747Z,1.00
2018-12-08T10:06:09.336Z,1.10
2018-12-08T10:08:36.893Z,1.60
2018-12-08T10:11:04.486Z,1.30
2018-12-08T10:13:32.088Z,1.20
2018-12-08T10:15:59.648Z,1.30
2018-12-08T10:18:27.239Z,1.20
2018-12-08T10:20:54.802Z,1.30
2018-12-08T10:23:22.391Z,1.20
2018-12-08T10:25:49.952Z,0.98
2018-12-08T10:28:17.543Z,1.10
2018-12-08T10:30:45.099Z,1.35
2018-12-08T10:33:13.251Z,1.20
2018-12-08T10:35:40.904Z,1.40
2018-12-08T10:38:08.491Z,1.27
2018-12-08T10:40:36.055Z,1.35
2018-12-08T10:43:03.648Z,1.30
2018-12-08T10:45:31.215Z,1.25
2018-12-08T10:47:58.803Z,1.40
2018-12-08T10:50:26.368Z,1.40
2018-12-08T10:52:53.952Z,1.40
2018-12-08T10:55:21.547Z,1.00
2018-12-08T10:57:49.173Z,1.40
2018-12-08T11:00:22.463Z,1.20
2018-12-08T11:02:52.038Z,1.10
2018-12-08T11:05:19.624Z,1.50
2018-12-08T11:07:47.179Z,1.37
2018-12-08T11:10:14.763Z,1.30
2018-12-08T11:12:42.339Z,1.50
2018-12-08T11:15:09.921Z,1.23
2018-12-08T11:17:37.483Z,1.10
2018-12-08T11:20:05.606Z,1.30
2018-12-08T11:22:33.168Z,1.00
2018-12-08T11:25:00.750Z,1.20
2018-12-08T11:27:28.316Z,1.07
2018-12-08T11:29:55.905Z,1.15
2018-12-08T11:32:24.207Z,1.25
2018-12-08T11:34:52.481Z,1.30
2018-12-08T11:37:20.817Z,1.22
2018-12-08T11:39:48.379Z,1.22
2018-12-08T11:42:15.966Z,1.67
2018-12-08T11:44:43.836Z,1.10
2018-12-08T11:47:11.626Z,1.20
2018-12-08T11:49:39.232Z,1.37
2018-12-08T11:52:06.909Z,1.32
2018-12-08T11:54:34.475Z,1.37
2018-12-08T11:57:02.228Z,1.10
2018-12-08T11:59:29.786Z,1.35
2018-12-08T12:01:57.962Z,1.40
2018-12-08T12:04:26.137Z,1.22
2018-12-08T12:06:54.039Z,1.60
2018-12-08T12:09:22.641Z,1.40
2018-12-08T12:11:50.603Z,1.37
2018-12-08T12:14:18.321Z,1.60
2018-12-08T12:16:46.199Z,1.20
2018-12-08T12:19:14.104Z,1.20
2018-12-08T12:21:42.008Z,1.40
2018-12-08T12:24:10.335Z,1.62
2018-12-08T12:26:37.914Z,1.32
2018-12-08T12:29:05.512Z,1.67
2018-12-08T12:31:33.079Z,1.50
2018-12-08T12:34:00.666Z,1.27
2018-12-08T12:36:28.296Z,1.40
2018-12-08T12:38:55.892Z,1.30
2018-12-08T12:41:23.487Z,1.17
2018-12-08T12:43:51.074Z,1.35
2018-12-08T12:46:18.629Z,1.20
2018-12-08T12:48:46.211Z,1.20
2018-12-08T12:51:13.771Z,1.17
2018-12-08T12:53:41.355Z,1.10
2018-12-08T12:56:08.915Z,1.07
2018-12-08T12:58:36.586Z,1.20
2018-12-08T13:01:04.187Z,1.20
2018-12-08T13:03:31.743Z,1.20
2018-12-08T13:05:59.326Z,1.10
2018-12-08T13:08:26.890Z,1.50
2018-12-08T13:10:54.479Z,1.32
2018-12-08T13:13:22.039Z,1.05
2018-12-08T13:15:49.623Z,1.20
2018-12-08T13:18:17.174Z,1.55
2018-12-08T13:20:44.754Z,1.30
2018-12-08T13:23:12.316Z,1.30
2018-12-08T13:25:39.927Z,1.27
2018-12-08T13:28:07.607Z,1.27
2018-12-08T13:30:35.239Z,1.20
2018-12-08T13:33:02.804Z,1.07
2018-12-08T13:38:31.057Z,1.20
2018-12-08T13:40:58.642Z,1.10
2018-12-08T13:43:26.199Z,1.00
2018-12-08T13:45:53.782Z,0.90
2018-12-08T13:48:21.659Z,1.02
2018-12-08T13:50:49.570Z,1.00
2018-12-08T13:53:17.164Z,1.10
2018-12-08T13:55:44.789Z,1.10
2018-12-08T13:58:12.552Z,1.02
2018-12-08T14:00:40.299Z,1.20
2018-12-08T14:03:08.087Z,1.00
2018-12-08T14:05:35.655Z,0.88
2018-12-08T14:08:03.303Z,0.85
2018-12-08T14:10:30.871Z,1.00
2018-12-08T14:12:58.463Z,1.00
2018-12-08T14:15:26.022Z,1.22
2018-12-08T14:17:53.606Z,1.00
2018-12-08T14:20:25.424Z,1.05
2018-12-08T14:22:53.123Z,1.20
2018-12-08T14:25:20.708Z,1.00
2018-12-08T14:27:48.286Z,0.80
2018-12-08T14:30:15.850Z,0.85
2018-12-08T14:32:43.435Z,1.10
2018-12-08T14:35:11.127Z,0.82
2018-12-08T14:37:38.686Z,0.90
2018-12-08T14:40:07.202Z,0.85
2018-12-08T14:42:34.763Z,0.98
2018-12-08T14:45:02.352Z,1.15
2018-12-08T14:47:29.908Z,0.80
2018-12-08T14:49:57.510Z,0.90
2018-12-08T14:52:25.065Z,0.80
2018-12-08T14:54:52.656Z,0.80
2018-12-08T14:57:20.223Z,0.80
2018-12-08T14:59:47.814Z,0.62
2018-12-08T15:02:15.375Z,0.90
2018-12-08T15:04:42.967Z,0.72
2018-12-08T15:07:10.523Z,1.10
2018-12-08T15:09:38.158Z,0.80
2018-12-08T15:12:05.815Z,0.80
2018-12-08T15:14:33.401Z,0.80
2018-12-08T15:17:00.960Z,0.90
2018-12-08T15:19:28.539Z,0.70
2018-12-08T15:21:56.127Z,0.82
2018-12-08T15:24:23.689Z,1.40
2018-12-08T15:26:51.280Z,0.90
2018-12-08T15:29:18.842Z,0.80
2018-12-08T15:31:46.439Z,0.90
2018-12-08T15:34:14.011Z,0.78
2018-12-08T15:36:42.025Z,0.88
2018-12-08T15:39:09.703Z,0.70
2018-12-08T15:41:37.291Z,0.80
2018-12-08T15:44:05.167Z,0.80
2018-12-08T15:46:32.776Z,0.93
2018-12-08T15:49:00.347Z,0.93
2018-12-08T15:51:27.934Z,0.90
2018-12-08T15:53:57.514Z,0.90
2018-12-08T15:56:25.142Z,0.90
2018-12-08T15:58:52.700Z,1.00
2018-12-08T16:01:20.289Z,0.90
2018-12-08T16:03:47.974Z,0.70
2018-12-08T16:06:15.714Z,0.80
2018-12-08T16:08:43.316Z,0.72
2018-12-08T16:11:10.963Z,0.82
2018-12-08T16:13:38.531Z,0.70
2018-12-08T16:16:06.132Z,0.60
2018-12-08T16:18:33.742Z,2.40
2018-12-08T16:21:01.421Z,1.17
2018-12-08T16:23:29.004Z,0.80
2018-12-08T16:25:56.700Z,1.00
2018-12-08T16:28:25.010Z,0.90
2018-12-08T16:30:53.088Z,0.70
2018-12-08T16:33:20.816Z,0.70
2018-12-08T16:35:48.407Z,1.10
2018-12-08T16:38:15.990Z,0.80
2018-12-08T16:40:43.587Z,0.70
2018-12-08T16:43:11.175Z,1.10
2018-12-08T16:45:38.730Z,0.90
2018-12-08T16:48:06.384Z,0.90
2018-12-08T16:50:33.951Z,1.07
2018-12-08T16:53:01.548Z,0.90
2018-12-08T16:55:29.195Z,0.90
2018-12-08T16:57:56.815Z,0.80
2018-12-08T17:00:24.402Z,0.98
2018-12-08T17:02:52.119Z,0.88
2018-12-08T17:05:19.732Z,0.70
2018-12-08T17:07:47.326Z,0.78
2018-12-08T17:10:15.053Z,0.95
2018-12-08T17:12:42.607Z,0.82
2018-12-08T17:15:10.411Z,0.70
2018-12-08T17:17:37.976Z,0.75
2018-12-08T17:20:07.695Z,0.90
2018-12-08T17:22:35.412Z,0.90
2018-12-08T17:25:03.027Z,0.78
2018-12-08T17:27:30.599Z,0.95
2018-12-08T17:29:58.196Z,0.90
2018-12-08T17:32:25.791Z,1.00
2018-12-08T17:34:53.549Z,0.80
2018-12-08T17:37:21.211Z,0.88
2018-12-08T17:39:48.811Z,0.75
2018-12-08T17:42:16.379Z,1.00
2018-12-08T17:44:43.966Z,1.12
2018-12-08T17:47:11.679Z,1.30
2018-12-08T17:49:39.263Z,0.90
2018-12-08T17:52:06.914Z,0.90
2018-12-08T17:54:34.513Z,1.00
2018-12-08T17:57:02.162Z,1.00
2018-12-08T17:59:29.747Z,0.80
2018-12-08T18:01:57.340Z,1.00
2018-12-08T18:04:24.900Z,0.95
2018-12-08T18:06:52.631Z,0.90
2018-12-08T18:09:20.267Z,0.85
2018-12-08T18:11:47.891Z,0.85
2018-12-08T18:14:15.446Z,0.80
2018-12-08T18:16:43.031Z,1.02
2018-12-08T18:19:10.590Z,1.02
2018-12-08T18:21:38.341Z,1.15
2018-12-08T18:24:06.063Z,1.37
2018-12-08T18:26:33.642Z,0.98
2018-12-08T18:29:01.207Z,1.07
2018-12-08T18:31:28.787Z,1.00
2018-12-08T18:33:56.593Z,0.82
2018-12-08T18:36:24.295Z,0.90
2018-12-08T18:38:51.859Z,1.00
2018-12-08T18:41:20.172Z,0.95
2018-12-08T18:43:47.888Z,0.90
2018-12-08T18:46:15.549Z,0.98
2018-12-08T18:48:43.114Z,1.30
2018-12-08T18:51:10.711Z,1.40
2018-12-08T18:53:38.271Z,2.80
2018-12-08T18:56:05.867Z,1.10
2018-12-08T18:58:33.451Z,1.20
2018-12-08T19:01:01.152Z,0.90
2018-12-08T19:03:28.751Z,1.00
2018-12-08T19:05:56.306Z,1.15
2018-12-08T19:08:23.895Z,0.90
2018-12-08T19:10:51.490Z,1.12
2018-12-08T19:13:19.095Z,0.93
2018-12-08T19:15:46.658Z,1.00
2018-12-08T19:18:14.271Z,1.40
2018-12-08T19:20:41.839Z,1.32
2018-12-08T19:23:09.419Z,1.07
2018-12-08T19:25:36.981Z,1.15
2018-12-08T19:28:04.587Z,1.07
2018-12-08T19:30:32.280Z,1.30
2018-12-08T19:32:59.862Z,1.20
2018-12-08T19:35:27.491Z,1.17
2018-12-08T19:37:55.087Z,1.30
2018-12-08T19:40:23.427Z,1.00
2018-12-08T19:42:51.019Z,1.20
2018-12-08T19:45:18.590Z,1.40
2018-12-08T19:47:46.179Z,1.30
2018-12-08T19:50:13.758Z,1.20
2018-12-08T19:52:42.292Z,0.95
2018-12-08T19:55:09.862Z,1.00
2018-12-08T19:57:37.459Z,1.05
2018-12-08T20:00:07.058Z,1.20
2018-12-08T20:02:34.651Z,1.02
2018-12-08T20:05:02.243Z,1.10
2018-12-08T20:07:29.823Z,0.90
2018-12-08T20:09:57.411Z,0.98
2018-12-08T20:12:24.991Z,0.95
2018-12-08T20:14:52.579Z,1.00
2018-12-08T20:17:20.322Z,0.90
2018-12-08T20:19:47.906Z,0.90
2018-12-08T20:22:15.466Z,0.93
2018-12-08T20:24:43.080Z,0.88
2018-12-08T20:27:10.723Z,1.45
2018-12-08T20:29:38.787Z,1.22
2018-12-08T20:32:06.356Z,0.98
2018-12-08T20:34:33.950Z,0.70
2018-12-08T20:37:01.507Z,0.82
2018-12-08T20:39:29.104Z,0.80
2018-12-08T20:41:56.679Z,0.75
2018-12-08T20:44:24.271Z,0.75
2018-12-08T20:46:51.832Z,0.70
2018-12-08T20:49:20.962Z,0.70
2018-12-08T20:51:48.532Z,0.70
2018-12-08T20:54:16.127Z,0.70
2018-12-08T20:56:43.741Z,0.80
2018-12-08T20:59:11.295Z,0.70
2018-12-08T21:01:38.874Z,1.50
2018-12-08T21:04:06.427Z,0.82
2018-12-08T21:06:34.024Z,0.70
2018-12-08T21:09:01.610Z,0.80
2018-12-08T21:11:29.204Z,0.70
2018-12-08T21:13:56.763Z,0.80
2018-12-08T21:16:24.359Z,0.50
2018-12-08T21:18:51.930Z,0.80
2018-12-08T21:21:19.520Z,0.60
2018-12-08T21:23:47.087Z,0.60
2018-12-08T21:26:14.671Z,0.50
2018-12-08T21:28:42.240Z,0.55
2018-12-08T21:31:10.243Z,0.40
2018-12-08T21:33:37.814Z,0.60
2018-12-08T21:36:05.873Z,0.60
2018-12-08T21:38:33.642Z,0.40
2018-12-08T21:41:01.243Z,0.40
2018-12-08T21:43:28.815Z,0.50
2018-12-08T21:45:56.585Z,0.50
2018-12-08T21:48:24.150Z,0.70
2018-12-08T21:50:51.744Z,0.60
2018-12-08T21:53:19.332Z,0.70
2018-12-08T21:55:46.903Z,0.60
2018-12-08T21:58:14.499Z,0.50
2018-12-08T22:00:42.054Z,0.50
2018-12-08T22:03:09.639Z,0.50
2018-12-08T22:05:37.201Z,0.60
2018-12-08T22:08:04.782Z,0.70
2018-12-08T22:10:32.430Z,0.50
2018-12-08T22:13:00.045Z,0.47
2018-12-08T22:15:27.737Z,0.50
2018-12-08T22:17:55.317Z,0.30
2018-12-08T22:20:22.887Z,0.40
2018-12-08T22:22:50.572Z,0.50
2018-12-08T22:25:18.168Z,0.50
2018-12-08T22:27:45.758Z,0.53
2018-12-08T22:30:13.341Z,0.45
2018-12-08T22:32:40.938Z,0.50
2018-12-08T22:35:08.511Z,0.50
2018-12-08T22:37:36.839Z,0.80
2018-12-08T22:40:05.370Z,0.70
2018-12-08T22:42:32.958Z,0.60
2018-12-08T22:45:00.530Z,0.70
2018-12-08T22:47:28.118Z,0.70
2018-12-08T22:49:56.124Z,0.98
2018-12-08T22:52:23.715Z,0.50
2018-12-08T22:54:51.270Z,0.50
2018-12-08T22:57:18.827Z,0.60
2018-12-08T22:59:46.407Z,0.60
2018-12-08T23:02:13.967Z,0.70
2018-12-08T23:04:41.546Z,0.70
2018-12-08T23:07:09.103Z,0.50
2018-12-08T23:09:36.682Z,0.60
2018-12-08T23:12:04.263Z,0.50
2018-12-08T23:14:31.967Z,0.60
2018-12-08T23:16:59.643Z,0.42
2018-12-08T23:19:27.228Z,0.50
2018-12-08T23:21:54.783Z,0.40
2018-12-08T23:24:22.371Z,0.50
2018-12-08T23:26:49.926Z,0.40
2018-12-08T23:29:17.506Z,0.40
2018-12-08T23:31:45.066Z,0.50
2018-12-08T23:34:12.622Z,0.50
2018-12-08T23:36:40.207Z,0.55
2018-12-08T23:39:07.881Z,0.70
2018-12-08T23:41:35.470Z,0.50
2018-12-08T23:44:03.040Z,0.70
2018-12-08T23:46:30.626Z,0.57
2018-12-08T23:48:58.508Z,0.57
2018-12-08T23:51:26.091Z,0.55
2018-12-08T23:53:53.650Z,0.47
2018-12-08T23:56:21.248Z,0.50
2018-12-08T23:58:48.802Z,0.50
